Time;durP1;ratioP1;P1;durP2;ratioP2;P2;SDS_P1;SDS_P2;PMS_P1;PMS_P2;Temp;Humidity;BMP_temperature;BMP_pressure;BME280_temperature;BME280_humidity;BME280_pressure;Samples;Min_cycle;Max_cycle;Signal;HPM_P1;HPM_P2
2022/07/18 00:01:05;;;;;;;1.35;0.72;;;;;;;11.98;100.00;100095.41;1673164;85;21499;-72
2022/07/18 00:03:32;;;;;;;0.70;0.57;;;;;;;11.95;100.00;100102.23;1671821;84;21106;-72
2022/07/18 00:05:58;;;;;;;2.60;0.65;;;;;;;11.93;100.00;100094.05;1685087;85;21088;-72
2022/07/18 00:08:26;;;;;;;1.98;0.60;;;;;;;11.93;100.00;100096.24;1666708;85;21063;-72
2022/07/18 00:10:53;;;;;;;2.27;0.82;;;;;;;11.93;100.00;100088.05;1664566;85;21051;-72
2022/07/18 00:13:22;;;;;;;3.77;0.60;;;;;;;11.94;100.00;100091.58;1673349;85;21143;-72
2022/07/18 00:15:50;;;;;;;2.27;0.60;;;;;;;11.94;100.00;100092.94;1669035;85;21051;-72
2022/07/18 00:18:16;;;;;;;1.50;0.70;;;;;;;11.93;100.00;100090.78;1665211;85;21061;-72
2022/07/18 00:20:42;;;;;;;2.70;0.70;;;;;;;11.93;100.00;100089.97;1679849;85;21083;-69
2022/07/18 00:23:11;;;;;;;3.42;0.90;;;;;;;11.93;100.00;100094.05;1674149;84;21586;-72
2022/07/18 00:25:37;;;;;;;2.45;0.90;;;;;;;11.90;100.00;100089.94;1661293;85;21044;-71
2022/07/18 00:28:04;;;;;;;2.52;1.00;;;;;;;11.87;100.00;100090.48;1671485;85;21065;-71
2022/07/18 00:30:32;;;;;;;3.60;0.70;;;;;;;11.89;100.00;100092.95;1665813;85;21070;-72
2022/07/18 00:32:59;;;;;;;;;;;;;;;11.89;100.00;100095.14;1675319;85;21158;-72
2022/07/18 00:35:26;;;;;;;1.70;0.80;;;;;;;11.88;100.00;100100.86;1668783;85;20440;-72
2022/07/18 00:37:52;;;;;;;;;;;;;;;11.83;100.00;100106.33;1683146;84;21165;-71
2022/07/18 00:40:19;;;;;;;4.10;0.80;;;;;;;11.80;100.00;100110.39;1670952;85;20167;-68
2022/07/18 00:42:45;;;;;;;1.90;0.90;;;;;;;11.74;100.00;100109.30;1672186;85;21492;-69
2022/07/18 00:45:12;;;;;;;2.35;1.10;;;;;;;11.72;100.00;100101.94;1689568;85;21604;-69
2022/07/18 00:47:39;;;;;;;1.17;0.70;;;;;;;11.68;100.00;100109.81;1679156;85;21112;-69
2022/07/18 00:50:07;;;;;;;;;;;;;;;11.69;100.00;100109.27;1666739;85;21050;-69
2022/07/18 00:52:34;;;;;;;2.83;0.90;;;;;;;11.69;100.00;100114.73;1668599;85;20145;-69
2022/07/18 00:55:00;;;;;;;3.50;0.85;;;;;;;11.64;100.00;100109.25;1681978;85;21008;-69
2022/07/18 00:57:27;;;;;;;3.72;1.20;;;;;;;11.65;100.00;100106.80;1664547;85;21039;-72
2022/07/18 01:02:39;;;;;;;4.30;1.50;;;;;;;11.57;100.00;100105.42;1670285;85;21461;-70
2022/07/18 01:05:07;;;;;;;1.92;1.17;;;;;;;11.55;100.00;100110.88;1689252;85;21004;-70
2022/07/18 01:07:35;;;;;;;4.17;1.32;;;;;;;11.58;100.00;100113.06;1679047;85;21016;-72
2022/07/18 01:10:04;;;;;;;4.75;1.20;;;;;;;11.55;100.00;100109.52;1681551;85;21047;-72
2022/07/18 01:12:31;;;;;;;3.02;1.67;;;;;;;11.52;100.00;100105.94;1672401;84;21071;-71
2022/07/18 01:14:58;;;;;;;3.95;1.85;;;;;;;11.51;100.00;100098.33;1668969;84;21565;-70
2022/07/18 01:17:24;;;;;;;4.83;2.12;;;;;;;11.53;100.00;100099.41;1684193;84;21034;-70
2022/07/18 01:19:51;;;;;;;3.12;2.10;;;;;;;11.51;100.00;100103.78;1691704;84;21087;-71
2022/07/18 01:22:18;;;;;;;2.20;1.75;;;;;;;11.48;100.00;100098.30;1680303;85;21391;-72
2022/07/18 01:24:45;;;;;;;2.42;1.57;;;;;;;11.47;100.00;100106.22;1679714;85;21325;-72
2022/07/18 01:27:17;;;;;;;3.12;1.50;;;;;;;11.47;100.00;100103.50;1666213;85;21613;-72
2022/07/18 01:29:44;;;;;;;3.95;1.65;;;;;;;11.48;100.00;100110.56;1676378;85;21507;-71
2022/07/18 01:32:13;;;;;;;4.95;1.65;;;;;;;11.44;100.00;100108.09;1681583;83;21039;-69
2022/07/18 01:34:40;;;;;;;3.87;1.77;;;;;;;11.42;100.00;100115.73;1680440;85;21060;-71
2022/07/18 01:37:08;;;;;;;4.70;1.70;;;;;;;11.40;100.00;100119.28;1680814;85;21509;-70
2022/07/18 01:39:35;;;;;;;3.25;1.57;;;;;;;11.38;100.00;100120.08;1668166;85;21075;-72
2022/07/18 01:42:05;;;;;;;3.50;1.50;;;;;;;11.38;100.00;100115.17;1631628;84;21000;-72
2022/07/18 01:44:33;;;;;;;5.28;1.27;;;;;;;11.38;100.00;100113.80;1672833;85;21043;-72
2022/07/18 01:47:00;;;;;;;2.75;1.60;;;;;;;11.37;100.00;100115.70;1676897;84;21449;-73
2022/07/18 01:49:26;;;;;;;2.47;1.45;;;;;;;11.33;100.00;100113.80;1687207;85;21048;-73
2022/07/18 01:51:53;;;;;;;;;;;;;;;11.27;100.00;100120.30;1685629;85;21013;-71
2022/07/18 01:54:26;;;;;;;2.83;1.67;;;;;;;11.27;100.00;100123.85;1683179;85;20137;-73
2022/07/18 01:56:53;;;;;;;3.65;2.37;;;;;;;11.21;100.00;100124.10;1667583;85;20984;-71
2022/07/18 01:59:20;;;;;;;3.83;2.40;;;;;;;11.19;100.00;100127.11;1684751;84;21563;-71
2022/07/18 02:01:47;;;;;;;6.72;3.85;;;;;;;11.19;100.00;100133.92;1654666;85;20960;-71
2022/07/18 02:04:14;;;;;;;5.62;4.33;;;;;;;11.15;100.00;100140.16;1666691;85;21447;-70
2022/07/18 02:06:40;;;;;;;;;;;;;;;11.12;100.00;100131.98;1674402;85;21598;-71
2022/07/18 02:09:08;;;;;;;5.12;4.30;;;;;;;11.13;100.00;100129.52;1665671;83;20157;-71
2022/07/18 02:11:35;;;;;;;7.12;5.83;;;;;;;11.09;100.00;100128.97;1684992;85;21043;-71
2022/07/18 02:14:04;;;;;;;7.12;5.62;;;;;;;11.09;100.00;100130.34;1670624;85;21132;-71
2022/07/18 02:16:31;;;;;;;10.50;7.50;;;;;;;11.12;100.00;100132.52;1669693;85;21094;-71
2022/07/18 02:18:58;;;;;;;;;;;;;;;11.12;100.00;100134.71;1687229;84;21043;-71
2022/07/18 02:21:24;;;;;;;6.62;6.03;;;;;;;11.08;100.00;100132.23;1690320;85;20162;-71
2022/07/18 02:23:51;;;;;;;7.78;5.17;;;;;;;11.03;100.00;100129.47;1669477;84;21586;-71
2022/07/18 02:26:18;;;;;;;8.13;4.25;;;;;;;11.06;100.00;100134.39;1730142;81;21039;-71
2022/07/18 02:28:44;;;;;;;;;;;;;;;11.10;100.00;100136.04;1732209;82;21080;-71
2022/07/18 02:31:10;;;;;;;7.00;3.40;;;;;;;11.13;100.00;100140.41;1717739;82;20164;-71
2022/07/18 02:33:37;;;;;;;5.50;4.10;;;;;;;11.10;100.00;100138.23;1711718;82;21534;-71
2022/07/18 02:36:04;;;;;;;;;;;;;;;11.15;100.00;100140.98;1724353;82;21004;-71
2022/07/18 02:38:30;;;;;;;8.33;6.00;;;;;;;11.18;100.00;100140.45;1717645;82;20390;-71
2022/07/18 02:40:57;;;;;;;4.72;3.80;;;;;;;11.11;100.00;100147.22;1717303;82;20972;-71
2022/07/18 02:43:23;;;;;;;4.12;3.22;;;;;;;11.14;100.00;100138.52;1719418;82;21118;-71
2022/07/18 02:45:50;;;;;;;3.80;2.60;;;;;;;11.21;100.00;100151.35;1711314;82;21047;-71
2022/07/18 02:48:16;;;;;;;4.42;2.05;;;;;;;11.24;100.00;100144.83;1719849;82;21059;-71
2022/07/18 02:50:43;;;;;;;4.78;1.82;;;;;;;11.25;100.00;100149.20;1721659;82;21067;-71
2022/07/18 02:53:09;;;;;;;;;;;;;;;11.27;100.00;100157.09;1720704;82;21007;-71
2022/07/18 02:55:36;;;;;;;5.33;1.70;;;;;;;11.28;100.00;100161.47;1729425;81;20142;-71
2022/07/18 02:58:02;;;;;;;2.40;1.70;;;;;;;11.27;100.00;100174.81;1726469;82;21601;-71
2022/07/18 03:00:28;;;;;;;4.83;2.10;;;;;;;11.29;100.00;100163.12;1713798;82;21536;-70
2022/07/18 03:02:55;;;;;;;;;;;;;;;11.28;100.00;100165.02;1735869;82;21004;-70
2022/07/18 03:05:21;;;;;;;3.67;1.40;;;;;;;11.31;100.00;100178.11;1723106;82;20129;-70
2022/07/18 03:07:48;;;;;;;1.85;1.17;;;;;;;11.32;100.00;100178.39;1724924;82;21578;-71
2022/07/18 03:10:14;;;;;;;4.80;1.60;;;;;;;11.39;100.00;100178.14;1738380;82;21550;-71
2022/07/18 03:12:42;;;;;;;3.75;1.50;;;;;;;11.43;100.00;100180.08;1728076;82;20952;-71
2022/07/18 03:15:09;;;;;;;3.15;1.45;;;;;;;11.49;100.00;100177.64;1727576;82;21589;-71
2022/07/18 03:17:36;;;;;;;3.35;1.52;;;;;;;11.58;100.00;100183.41;1717957;82;21487;-71
2022/07/18 03:20:05;;;;;;;6.20;1.62;;;;;;;11.65;100.00;100184.52;1728262;82;21051;-73
2022/07/18 03:22:33;;;;;;;4.87;1.47;;;;;;;11.69;100.00;100186.42;1707402;83;21122;-73
2022/07/18 03:25:00;;;;;;;3.75;1.67;;;;;;;11.74;100.00;100186.48;1718803;82;21067;-74
2022/07/18 03:27:26;;;;;;;3.52;1.32;;;;;;;11.83;100.00;100190.31;1711999;82;21051;-73
2022/07/18 03:29:52;;;;;;;2.83;1.47;;;;;;;11.89;100.00;100185.70;1711184;82;21047;-73
2022/07/18 03:32:19;;;;;;;;;;;;;;;11.99;100.00;100187.09;1726645;82;21043;-74
2022/07/18 03:34:46;;;;;;;;;;;;;;;12.05;100.00;100186.00;1745129;81;20157;-74
2022/07/18 03:37:13;;;;;;;3.75;1.42;;;;;;;12.05;100.00;100184.63;1736239;82;20148;-71
2022/07/18 03:39:39;;;;;;;3.47;1.57;;;;;;;12.05;100.00;100181.08;1738005;82;21581;-73
2022/07/18 03:42:06;;;;;;;4.03;1.32;;;;;;;12.22;100.00;100185.20;1727044;82;21003;-72
2022/07/18 03:44:32;;;;;;;2.12;1.75;;;;;;;12.41;100.00;100181.39;1722090;82;21043;-71
2022/07/18 03:46:59;;;;;;;3.33;1.95;;;;;;;12.61;100.00;100179.22;1730978;82;20984;-70
2022/07/18 03:49:26;;;;;;;4.97;2.10;;;;;;;12.84;100.00;100186.29;1737033;82;21114;-71
2022/07/18 03:51:55;;;;;;;3.37;2.17;;;;;;;13.10;100.00;100191.20;1738514;82;21561;-73
2022/07/18 03:54:22;;;;;;;3.25;1.80;;;;;;;13.34;100.00;100184.01;1740612;81;21082;-71
2022/07/18 03:56:50;;;;;;;3.55;1.70;;;;;;;13.61;100.00;100186.89;1733639;82;20952;-74
2022/07/18 03:59:17;;;;;;;2.52;1.60;;;;;;;13.90;100.00;100185.11;1730821;82;21066;-74
2022/07/18 04:01:43;;;;;;;2.62;1.60;;;;;;;14.07;100.00;100184.17;1733213;82;20999;-74
2022/07/18 04:04:11;;;;;;;4.35;1.82;;;;;;;14.26;100.00;100182.95;1728559;82;21030;-74
2022/07/18 04:06:39;;;;;;;2.50;1.47;;;;;;;14.37;100.00;100186.74;1726725;82;21004;-74
2022/07/18 04:09:06;;;;;;;4.47;1.37;;;;;;;14.50;100.00;100183.06;1730259;82;21046;-74
2022/07/18 04:11:33;;;;;;;3.12;1.27;;;;;;;14.67;100.00;100181.54;1733379;82;21003;-71
2022/07/18 04:14:00;;;;;;;2.98;1.77;;;;;;;14.84;100.00;100176.44;1724728;82;21054;-73
2022/07/18 04:16:26;;;;;;;5.33;1.45;;;;;;;14.87;100.00;100169.58;1742452;82;21018;-70
2022/07/18 04:18:53;;;;;;;2.95;1.90;;;;;;;15.04;100.00;100172.69;1742289;82;21055;-72
2022/07/18 04:21:20;;;;;;;4.42;2.60;;;;;;;15.36;100.00;100178.36;1737650;82;21079;-72
2022/07/18 04:23:48;;;;;;;4.67;3.20;;;;;;;15.43;100.00;100169.77;1742680;82;21137;-73
2022/07/18 04:26:14;;;;;;;3.92;2.55;;;;;;;15.38;100.00;100162.96;1743561;82;21927;-72
2022/07/18 04:28:41;;;;;;;3.05;2.30;;;;;;;15.50;100.00;100170.27;1742112;82;21110;-73
2022/07/18 04:31:07;;;;;;;;;;;;;;;15.71;100.00;100170.81;1731089;82;20995;-73
2022/07/18 04:33:34;;;;;;;4.73;2.50;;;;;;;15.94;100.00;100165.25;1730923;82;20111;-72
2022/07/18 04:36:00;;;;;;;3.77;2.50;;;;;;;15.94;100.00;100165.25;1733602;82;21532;-73
2022/07/18 04:38:28;;;;;;;4.40;2.42;;;;;;;15.83;100.00;100168.46;1734793;82;21075;-75
2022/07/18 04:40:55;;;;;;;3.98;1.90;;;;;;;15.82;100.00;100173.13;1744183;82;21362;-75
2022/07/18 04:43:21;;;;;;;;;;;;;;;16.06;100.00;100177.73;1725673;82;21031;-74
2022/07/18 04:45:48;;;;;;;3.45;1.50;;;;;;;16.41;100.00;100181.30;1736178;82;20134;-75
2022/07/18 04:48:14;;;;;;;1.95;1.57;;;;;;;16.54;100.00;100177.80;1738460;82;21596;-76
2022/07/18 04:50:40;;;;;;;;;;;;;;;16.80;100.00;100172.14;1740551;82;20991;-75
2022/07/18 04:53:07;;;;;;;3.58;1.30;;;;;;;17.01;100.00;100175.89;1743409;82;20106;-73
2022/07/18 04:55:34;;;;;;;6.10;1.55;;;;;;;17.01;100.00;100169.02;1730122;82;21541;-73
2022/07/18 04:58:01;;;;;;;3.77;1.40;;;;;;;17.10;100.00;100165.27;1727514;82;21086;-72
2022/07/18 05:00:28;;;;;;;2.50;1.47;;;;;;;17.08;100.00;100166.13;1734567;82;21022;-74
2022/07/18 05:02:56;;;;;;;6.22;1.70;;;;;;;17.02;100.00;100165.15;1727414;82;21505;-73
2022/07/18 05:05:23;;;;;;;4.42;1.90;;;;;;;17.09;100.00;100160.88;1727798;82;21036;-76
2022/07/18 05:07:51;;;;;;;5.35;1.72;;;;;;;17.31;100.00;100172.01;1726590;82;21542;-74
2022/07/18 05:10:19;;;;;;;3.40;1.22;;;;;;;17.57;100.00;100174.28;1733906;82;21506;-76
2022/07/18 05:12:49;;;;;;;3.72;1.85;;;;;;;17.92;100.00;100167.18;1726913;82;21023;-74
2022/07/18 05:15:17;;;;;;;3.17;1.52;;;;;;;18.09;100.00;100162.64;1730322;82;21490;-76
2022/07/18 05:17:43;;;;;;;3.95;1.40;;;;;;;18.32;100.00;100162.90;1734966;82;21656;-75
2022/07/18 05:20:13;;;;;;;3.45;1.42;;;;;;;18.59;100.00;100158.42;1745742;80;21023;-75
2022/07/18 05:22:39;;;;;;;3.42;1.17;;;;;;;18.82;100.00;100158.64;1733865;82;21431;-75
2022/07/18 05:25:07;;;;;;;3.27;1.30;;;;;;;18.93;100.00;100155.86;1737154;80;21082;-73
2022/07/18 05:27:33;;;;;;;2.77;1.40;;;;;;;18.97;100.00;100153.28;1731066;82;20956;-72
2022/07/18 05:30:02;;;;;;;4.72;1.40;;;;;;;19.01;100.00;100151.52;1735055;82;21061;-74
2022/07/18 05:32:29;;;;;;;3.12;1.07;;;;;;;18.87;100.00;100150.23;1733030;80;21046;-76
2022/07/18 05:34:56;;;;;;;2.77;0.80;;;;;;;18.84;100.00;100155.02;1747959;81;21071;-77
2022/07/18 05:37:23;;;;;;;1.70;0.93;;;;;;;18.91;100.00;100154.00;1728598;82;21054;-76
2022/07/18 05:39:52;;;;;;;1.98;1.02;;;;;;;18.93;100.00;100153.10;1729952;82;21512;-75
2022/07/18 05:42:20;;;;;;;3.75;1.15;;;;;;;18.92;100.00;100151.47;1737160;82;21491;-77
2022/07/18 05:44:46;;;;;;;2.47;1.00;;;;;;;18.85;100.00;100155.24;1691717;84;21066;-76
2022/07/18 05:47:14;;;;;;;2.22;0.90;;;;;;;18.84;100.00;100161.91;1741156;81;21020;-75
2022/07/18 06:28:04;;;;;;;4.12;0.90;;;;;;;19.71;100.00;100148.13;1812387;78;23434;-71
2022/07/18 06:30:31;;;;;;;2.70;1.20;;;;;;;19.61;100.00;100144.30;1816589;78;21034;-70
2022/07/18 06:32:58;;;;;;;3.25;0.90;;;;;;;19.72;100.00;100148.95;1811422;78;21022;-72
2022/07/18 06:35:43;;;;;;;4.00;1.20;;;;;;;19.79;100.00;100148.72;1756423;81;21477;-67
2022/07/18 06:38:10;;;;;;;3.90;0.72;;;;;;;19.99;100.00;100145.87;1741573;80;21035;-68
2022/07/18 06:40:37;;;;;;;3.60;0.93;;;;;;;20.41;100.00;100148.98;1745395;80;21115;-67
2022/07/18 06:43:03;;;;;;;3.42;0.90;;;;;;;20.80;100.00;100152.34;1749944;80;21035;-68
2022/07/18 06:45:31;;;;;;;2.12;0.75;;;;;;;21.10;100.00;100137.19;1753261;80;21415;-69
2022/07/18 06:47:57;;;;;;;1.77;0.82;;;;;;;20.98;100.00;100130.14;1748041;80;21054;-71
2022/07/18 06:50:24;;;;;;;2.22;0.90;;;;;;;21.01;100.00;100129.51;1771332;79;20999;-70
2022/07/18 06:52:51;;;;;;;2.00;0.88;;;;;;;21.09;100.00;100128.64;1745732;80;21922;-73
2022/07/18 06:55:17;;;;;;;2.00;0.90;;;;;;;21.44;100.00;100126.54;1761754;80;21023;-73
2022/07/18 06:57:44;;;;;;;4.20;1.20;;;;;;;21.97;100.00;100125.31;1747349;80;21718;-70
2022/07/18 07:00:14;;;;;;;2.37;1.02;;;;;;;21.97;100.00;100125.31;1756464;80;21050;-70
2022/07/18 07:02:46;;;;;;;1.60;0.90;;;;;;;22.11;100.00;100115.34;1766517;79;21052;-70
2022/07/18 07:05:14;;;;;;;3.27;0.60;;;;;;;21.99;100.00;100123.61;1751962;79;21011;-69
2022/07/18 07:07:43;;;;;;;2.85;0.60;;;;;;;22.00;100.00;100123.25;1765883;79;21130;-71
2022/07/18 07:10:10;;;;;;;2.50;0.80;;;;;;;21.94;100.00;100121.84;1775694;79;21460;-72
2022/07/18 07:12:40;;;;;;;1.80;0.70;;;;;;;21.97;100.00;100125.31;1770706;79;21046;-71
2022/07/18 07:15:08;;;;;;;1.25;0.60;;;;;;;22.19;100.00;100123.59;1745992;81;21486;-71
2022/07/18 07:17:35;;;;;;;1.62;0.82;;;;;;;22.38;100.00;100126.45;1757569;79;21521;-71
2022/07/18 07:20:07;;;;;;;1.12;0.50;;;;;;;22.67;100.00;100129.13;1769523;81;21039;-70
2022/07/18 07:22:52;;;;;;;0.70;0.50;;;;;;;22.79;100.00;100123.59;1765625;79;21051;-71
2022/07/18 07:25:21;;;;;;;1.57;0.50;;;;;;;22.43;100.00;100117.90;1747393;81;21887;-71
2022/07/18 07:27:47;;;;;;;1.75;0.55;;;;;;;22.14;100.00;100120.23;1737633;81;20999;-70
2022/07/18 07:30:14;;;;;;;1.12;0.50;;;;;;;22.01;100.00;100124.88;1735521;81;21492;-73
2022/07/18 07:32:42;;;;;;;1.82;0.62;;;;;;;21.95;100.00;100116.55;1794535;79;21586;-70
2022/07/18 07:35:12;;;;;;;0.82;0.40;;;;;;;22.18;100.00;100121.96;1788117;78;20995;-72
2022/07/18 07:37:40;;;;;;;3.12;0.45;;;;;;;22.29;100.00;100119.02;1798425;77;21633;-69
2022/07/18 07:40:07;;;;;;;1.92;0.50;;;;;;;22.36;100.00;100123.19;1816793;78;21056;-69
2022/07/18 07:42:34;;;;;;;1.12;0.40;;;;;;;22.45;100.00;100118.39;1790327;78;21804;-70
2022/07/18 07:45:01;;;;;;;2.33;0.50;;;;;;;22.36;100.00;100114.87;1805430;78;21004;-70
2022/07/18 07:47:30;;;;;;;1.95;0.40;;;;;;;22.38;100.00;100112.58;1787033;78;21079;-69
2022/07/18 07:49:57;;;;;;;1.62;0.40;;;;;;;22.14;100.00;100125.17;1729485;81;21633;-70
2022/07/18 07:52:24;;;;;;;1.62;0.50;;;;;;;21.92;100.00;100116.41;1807091;77;21059;-72
2022/07/18 07:54:51;;;;;;;1.47;0.50;;;;;;;21.88;100.00;100111.27;1739065;81;21053;-69
2022/07/18 07:57:18;;;;;;;1.37;0.40;;;;;;;22.00;100.00;100116.32;1801879;77;21099;-72
2022/07/18 07:59:45;;;;;;;1.32;0.30;;;;;;;22.14;100.00;100112.70;1793398;78;20961;-73
2022/07/18 08:02:11;;;;;;;1.95;0.40;;;;;;;22.27;100.00;100114.39;1743233;82;21168;-71
2022/07/18 08:04:37;;;;;;;1.02;0.30;;;;;;;22.27;100.00;100114.39;1726897;81;21569;-71
2022/07/18 08:07:04;;;;;;;2.00;0.40;;;;;;;22.41;100.00;100118.83;1723301;81;21053;-72
2022/07/18 08:09:31;;;;;;;1.55;0.23;;;;;;;22.63;100.00;100119.27;1731357;81;20932;-73
2022/07/18 08:11:59;;;;;;;2.10;0.30;;;;;;;22.89;100.00;100118.17;1756052;81;20996;-71
2022/07/18 08:14:25;;;;;;;0.50;0.30;;;;;;;23.14;100.00;100123.41;1772599;81;21454;-70
2022/07/18 08:16:52;;;;;;;1.98;0.30;;;;;;;23.34;100.00;100109.77;1763545;81;21510;-70
2022/07/18 08:19:18;;;;;;;2.02;0.30;;;;;;;23.28;100.00;100117.52;1764663;79;20944;-71
2022/07/18 08:21:45;;;;;;;2.12;0.30;;;;;;;23.07;100.00;100116.23;1756607;81;21011;-72
2022/07/18 08:24:13;;;;;;;0.78;0.40;;;;;;;23.00;100.00;100105.47;1752707;81;21134;-71
2022/07/18 08:26:41;;;;;;;0.80;0.25;;;;;;;23.26;100.00;100119.84;1746070;80;21567;-72
2022/07/18 08:29:07;;;;;;;3.12;0.30;;;;;;;23.28;100.00;100113.34;1735104;80;21551;-72
2022/07/18 08:31:34;;;;;;;2.40;0.35;;;;;;;23.17;100.00;100117.73;1731507;82;21646;-72
2022/07/18 08:34:01;;;;;;;1.65;0.20;;;;;;;23.30;100.00;100107.70;1727430;80;21029;-71
2022/07/18 08:36:28;;;;;;;0.30;0.20;;;;;;;23.51;100.00;100113.16;1737134;82;21595;-70
2022/07/18 08:38:55;;;;;;;0.37;0.10;;;;;;;23.44;91.29;100110.15;1703948;83;21014;-71
2022/07/18 08:41:23;;;;;;;2.20;0.20;;;;;;;23.09;86.52;100114.52;1718394;82;21594;-71
2022/07/18 08:43:50;;;;;;;0.57;0.20;;;;;;;22.73;96.42;100116.65;1730002;82;21117;-71
2022/07/18 08:46:21;;;;;;;1.12;0.25;;;;;;;22.64;95.17;100113.92;1746371;82;21036;-71
2022/07/18 08:48:49;;;;;;;0.37;0.20;;;;;;;22.57;100.00;100119.80;1749479;80;20957;-71
2022/07/18 08:51:15;;;;;;;1.15;0.30;;;;;;;22.79;100.00;100123.02;1747978;82;21124;-71
2022/07/18 08:53:42;;;;;;;0.50;0.20;;;;;;;22.89;100.00;100126.49;1730969;82;21512;-70
2022/07/18 08:56:09;;;;;;;1.05;0.30;;;;;;;23.07;99.56;100114.03;1695507;84;21526;-70
2022/07/18 08:58:35;;;;;;;0.72;0.20;;;;;;;23.22;100.00;100127.23;1721694;83;21017;-74
2022/07/18 09:01:02;;;;;;;1.37;0.30;;;;;;;23.46;100.00;100110.59;1757185;81;21890;-72
2022/07/18 09:03:29;;;;;;;0.98;0.20;;;;;;;23.78;88.62;100117.16;1766237;80;20983;-71
2022/07/18 09:06:11;;;;;;;0.82;0.20;;;;;;;23.82;77.01;100112.52;1777953;78;21062;-71
2022/07/18 09:08:39;;;;;;;0.93;0.20;;;;;;;23.76;76.67;100104.20;1759072;80;21081;-73
2022/07/18 09:11:11;;;;;;;1.17;0.20;;;;;;;23.92;97.11;100107.85;1771288;80;21406;-72
2022/07/18 09:13:42;;;;;;;0.68;0.25;;;;;;;24.12;88.89;100112.45;1764045;80;21047;-71
2022/07/18 09:16:14;;;;;;;1.12;0.20;;;;;;;23.86;86.68;100112.05;1776087;80;21631;-71
2022/07/18 09:18:47;;;;;;;0.93;0.20;;;;;;;23.58;82.98;100105.61;1767584;80;21047;-72
2022/07/18 09:21:18;;;;;;;0.60;0.20;;;;;;;23.25;83.05;100108.48;1767877;80;21050;-72
2022/07/18 09:23:51;;;;;;;0.72;0.20;;;;;;;23.00;83.74;100107.66;1788186;78;21035;-72
2022/07/18 09:26:40;;;;;;;0.78;0.20;;;;;;;22.81;88.02;100110.98;1768637;80;21095;-71
2022/07/18 09:29:07;;;;;;;2.05;0.28;;;;;;;22.76;91.60;100111.22;1779595;80;20967;-71
2022/07/18 09:31:34;;;;;;;0.50;0.20;;;;;;;22.83;89.48;100100.12;1775766;80;21054;-73
2022/07/18 09:34:02;;;;;;;0.40;0.20;;;;;;;22.88;91.46;100104.89;1772493;78;21362;-70
2022/07/18 09:36:33;;;;;;;1.02;0.30;;;;;;;23.08;100.00;100092.88;1777377;79;21587;-72
2022/07/18 09:38:58;;;;;;;1.05;0.28;;;;;;;23.31;100.00;100099.58;1771091;78;20995;-71
2022/07/18 09:41:32;;;;;;;0.72;0.20;;;;;;;23.47;100.00;100101.11;1760160;80;21101;-73
2022/07/18 09:43:59;;;;;;;0.40;0.20;;;;;;;23.48;98.49;100094.41;1761794;78;20967;-72
2022/07/18 09:46:26;;;;;;;0.78;0.20;;;;;;;23.47;98.30;100095.55;1772580;79;21591;-73
2022/07/18 09:49:10;;;;;;;1.65;0.23;;;;;;;23.45;91.26;100095.11;1768448;80;21556;-71
2022/07/18 09:51:38;;;;;;;1.95;0.30;;;;;;;23.21;98.77;100101.43;1757665;80;21122;-71
2022/07/18 09:54:06;;;;;;;1.15;0.30;;;;;;;23.21;98.77;100101.43;1747731;80;20988;-72
2022/07/18 09:56:37;;;;;;;2.25;0.20;;;;;;;23.36;99.78;100093.55;1778959;79;21431;-72
2022/07/18 09:59:05;;;;;;;1.15;0.30;;;;;;;23.36;99.78;100093.55;1705140;81;21039;-71
2022/07/18 10:01:32;;;;;;;0.40;0.23;;;;;;;23.31;100.00;100104.34;1726668;80;21046;-70
2022/07/18 10:04:00;;;;;;;1.10;0.42;;;;;;;23.29;99.81;100103.86;1763403;80;21027;-72
2022/07/18 10:06:26;;;;;;;1.55;0.30;;;;;;;23.10;96.82;100107.20;1768494;79;22095;-71
2022/07/18 10:08:53;;;;;;;1.75;0.20;;;;;;;23.01;96.52;100102.36;1760567;78;21023;-73
2022/07/18 10:11:24;;;;;;;0.80;0.45;;;;;;;23.01;96.52;100102.36;1767490;80;21090;-72
2022/07/18 10:13:50;;;;;;;0.80;0.20;;;;;;;23.00;94.62;100110.45;1758496;78;21004;-71
2022/07/18 10:16:20;;;;;;;2.08;0.30;;;;;;;23.00;94.62;100110.45;1773872;78;21337;-72
2022/07/18 10:18:48;;;;;;;1.77;0.70;;;;;;;22.99;94.80;100104.65;1787917;79;20971;-75
2022/07/18 10:21:15;;;;;;;0.75;0.30;;;;;;;23.09;100.00;100107.00;1761022;80;21019;-73
2022/07/18 10:23:48;;;;;;;0.78;0.20;;;;;;;23.14;97.20;100103.16;1761127;79;21031;-73
2022/07/18 10:26:27;;;;;;;2.02;0.30;;;;;;;23.02;100.00;100098.43;1756349;81;21056;-73
2022/07/18 10:29:04;;;;;;;0.70;0.25;;;;;;;23.07;100.00;100095.98;1797375;78;21585;-73
2022/07/18 10:31:42;;;;;;;1.35;0.35;;;;;;;23.21;100.00;100086.73;1805460;78;21043;-72
2022/07/18 10:34:11;;;;;;;1.52;0.30;;;;;;;23.39;92.42;100087.30;1770540;79;20988;-70
2022/07/18 10:36:54;;;;;;;1.47;0.30;;;;;;;23.33;98.42;100090.09;1785598;77;21730;-71
2022/07/18 10:39:25;;;;;;;0.75;0.25;;;;;;;23.21;91.86;100090.32;1781334;79;21149;-69
2022/07/18 10:42:04;;;;;;;0.85;0.30;;;;;;;22.98;96.71;100090.55;1801698;78;21084;-71
2022/07/18 10:44:35;;;;;;;0.57;0.20;;;;;;;22.75;94.34;100087.97;1791832;78;21035;-71
2022/07/18 10:47:24;;;;;;;2.05;0.20;;;;;;;22.58;100.00;100095.06;1794329;78;21601;-71
2022/07/18 10:49:58;;;;;;;2.95;0.37;;;;;;;22.41;99.75;100094.68;1795591;79;21027;-71
2022/07/18 10:52:37;;;;;;;1.07;0.35;;;;;;;22.23;100.00;100091.27;1793003;79;21114;-69
2022/07/18 10:55:18;;;;;;;0.28;0.20;;;;;;;22.18;100.00;100096.19;1798495;78;21031;-71
2022/07/18 10:57:59;;;;;;;0.47;0.20;;;;;;;22.17;100.00;100090.44;1802123;79;21000;-70
2022/07/18 11:00:35;;;;;;;0.70;0.20;;;;;;;22.29;100.00;100079.38;1806626;79;21669;-70
2022/07/18 11:03:05;;;;;;;0.30;0.20;;;;;;;22.44;100.00;100077.34;1727667;81;21531;-71
2022/07/18 11:05:38;;;;;;;0.72;0.20;;;;;;;22.66;100.00;100082.50;1782180;79;21007;-71
2022/07/18 11:08:17;;;;;;;0.95;0.30;;;;;;;22.89;99.90;100078.73;1799212;79;20952;-72
2022/07/18 11:11:01;;;;;;;0.30;0.20;;;;;;;23.01;98.01;100071.81;1797429;79;21056;-74
2022/07/18 11:13:31;;;;;;;0.55;0.20;;;;;;;23.11;100.00;100068.57;1804106;78;21422;-71
2022/07/18 11:16:24;;;;;;;1.65;0.20;;;;;;;23.17;100.00;100067.75;1798018;79;21015;-71
2022/07/18 11:19:03;;;;;;;0.55;0.20;;;;;;;23.19;100.00;100081.55;1785887;79;21457;-70
2022/07/18 11:24:09;;;;;;;0.72;0.20;;;;;;;23.20;100.00;100059.53;1799169;79;22926;-73
2022/07/18 11:26:38;;;;;;;2.27;0.30;;;;;;;23.13;84.88;100067.63;1740103;81;21109;-69
2022/07/18 11:29:08;;;;;;;1.02;0.20;;;;;;;22.99;82.90;100074.72;1725272;83;21014;-68
2022/07/18 11:31:50;;;;;;;2.08;0.20;;;;;;;22.74;80.98;100066.34;1731401;81;21556;-73
2022/07/18 11:34:35;;;;;;;0.62;0.10;;;;;;;22.50;82.92;100078.74;1712634;83;21581;-74
2022/07/18 11:37:01;;;;;;;1.87;0.30;;;;;;;22.20;88.26;100083.63;1728163;82;21545;-72
2022/07/18 11:39:30;;;;;;;0.37;0.20;;;;;;;22.05;98.91;100073.73;1718128;83;21481;-73
2022/07/18 11:41:58;;;;;;;1.30;0.37;;;;;;;21.92;100.00;100092.28;1743519;80;21066;-69
2022/07/18 11:44:28;;;;;;;2.02;0.20;;;;;;;21.82;100.00;100085.73;1731065;81;21486;-73
2022/07/18 11:47:09;;;;;;;2.35;0.30;;;;;;;21.83;100.00;100080.41;1723752;81;21122;-73
2022/07/18 11:49:36;;;;;;;1.70;0.30;;;;;;;21.79;100.00;100080.84;1727517;83;20988;-71
2022/07/18 11:52:03;;;;;;;1.52;0.30;;;;;;;21.82;100.00;100081.58;1729870;81;21050;-74
2022/07/18 11:54:32;;;;;;;0.82;0.20;;;;;;;21.86;100.00;100082.49;1725885;81;20999;-71
2022/07/18 11:57:00;;;;;;;0.82;0.20;;;;;;;21.88;100.00;100082.17;1696823;83;21145;-70
2022/07/18 11:59:41;;;;;;;1.17;0.30;;;;;;;21.86;100.00;100066.47;1727017;83;21493;-69
2022/07/18 12:02:08;;;;;;;2.17;0.20;;;;;;;21.91;100.00;100073.20;1729835;81;21674;-70
2022/07/18 12:04:36;;;;;;;1.52;0.30;;;;;;;22.00;100.00;100067.03;1727800;83;21042;-69
2022/07/18 12:07:18;;;;;;;1.20;0.20;;;;;;;22.16;100.00;100065.23;1698038;84;21081;-71
2022/07/18 12:09:47;;;;;;;0.85;0.20;;;;;;;22.30;100.00;100057.43;1695616;83;21014;-70
2022/07/18 12:12:17;;;;;;;1.35;0.30;;;;;;;22.38;100.00;100064.05;1677692;84;21093;-72